AIRPORT MAP

 RUNWAY INFORMATION

Runway 06 Runway length 9186 ft Runway width 148 ft
Runway elevation 13 ft Runway displaced threshold 0 ft Runway heading 62
Runway 24 Runway length 9186 ft Runway width 148 ft
Runway elevation 16 ft Runway displaced threshold 0 ft Runway heading 242

 AIRPORT FREQUENCIES

Type APP Name PALMA APP Frequency 118.125 MHZ
Type APP Name APP Frequency 119.8 MHZ
Type ATIS Name ATIS Frequency 117.8 MHZ
Type GND Name GND Frequency 121.8 MHZ
Type TWR Name TWR Frequency 118.5 MHZ

 AIRPORT NEAR NAVIGATION AIDS

Type VOR-DME Name Ibiza Frequency 117800 KHZ
Type NDB Name Ibiza Frequency 394 KHZ

 METAR AND TAF INFORMATION

METAR FOR LEIB
ADDS - METARS form results

(2124 UTC 08 August 2020)
Data provider http://aviationweather.gov/metar/data/
 
METAR text: LEIB 082100Z 00000KT CAVOK 25/21 Q1017 NOSIG
Conditions at: LEIB (IBIZA/ES CODOLA , ES) observed 2100 UTC 08 August 2020
Temperature: 25.0°C (77°F)
Dewpoint: 21.0°C (70°F) [RH = 79%]
Pressure (altimeter): 30.03 inches Hg (1017.0 mb)
Winds: calm
Visibility: 6 or more miles (10+ km)
Ceiling: ceiling and visibility are OK
Clouds: unknown
Weather: no significant weather observed at this time

METAR text: LEIB 082030Z 00000KT CAVOK 25/21 Q1017 NOSIG
Conditions at: LEIB (IBIZA/ES CODOLA , ES) observed 2030 UTC 08 August 2020
Temperature: 25.0°C (77°F)
Dewpoint: 21.0°C (70°F) [RH = 79%]
Pressure (altimeter): 30.03 inches Hg (1017.0 mb)
Winds: calm
Visibility: 6 or more miles (10+ km)
Ceiling: ceiling and visibility are OK
Clouds: unknown
Weather: no significant weather observed at this time

Forecast for: LEIB (IBIZA/ES CODOLA , ES)
Text: TAF LEIB 082000Z 0821/0921 VRB04KT 9999 FEW030 TX32/0912Z TN22/0905Z
Forecast period: 2100 UTC 08 August 2020 to 1000 UTC 09 August 2020
Forecast type: FROM: standard forecast or significant change
Winds: variable direction winds at 5 MPH (4 knots; 2.1 m/s)
Visibility: 6 or more miles (10+ km)
Ceiling: at least 12,000 feet AGL
Clouds: few clouds at 3000 feet AGL
Weather: no significant weather forecast for this period
Text: PROB30
Forecast period: 0100 to 0600 UTC 09 August 2020
Forecast type: TEMPORARY: The following changes expected for less than half the time period
Visibility: 1.86 miles (2.99 km)
Ceiling: unknown
Clouds: missing
Weather: BR  (mist)
Text: TEMPO 0901/0906 3000 BR
Forecast period: 1000 to 2100 UTC 09 August 2020
Forecast type: BECOMING: Conditions expected to become as follows by 1200 UTC 09 August 2020
Winds: from the ESE (110 degrees) at 12 MPH (10 knots; 5.1 m/s)
Visibility: 6 or more miles (10+ km)
Ceiling: at least 12,000 feet AGL
Clouds: few clouds at 3000 feet AGL
Weather: no significant weather forecast for this period